createdAt,value
2017-07-08T00:00:19.299Z,9.70
2017-07-08T00:02:47.067Z,9.30
2017-07-08T00:05:14.829Z,8.93
2017-07-08T00:07:42.694Z,7.33
2017-07-08T00:10:10.373Z,8.13
2017-07-08T00:12:38.222Z,7.10
2017-07-08T00:15:05.989Z,6.93
2017-07-08T00:17:33.751Z,8.53
2017-07-08T00:20:01.517Z,7.20
2017-07-08T00:22:29.177Z,7.50
2017-07-08T00:24:56.968Z,7.93
2017-07-08T00:27:24.705Z,8.30
2017-07-08T00:29:52.335Z,7.00
2017-07-08T00:32:20.047Z,8.67
2017-07-08T00:34:47.821Z,8.27
2017-07-08T00:37:15.586Z,6.80
2017-07-08T00:39:44.040Z,6.73
2017-07-08T00:42:11.719Z,10.57
2017-07-08T00:44:39.566Z,10.60
2017-07-08T00:47:07.331Z,10.50
2017-07-08T00:49:35.208Z,10.40
2017-07-08T00:52:02.961Z,9.70
2017-07-08T00:54:30.602Z,7.03
2017-07-08T00:56:58.264Z,6.50
2017-07-08T00:59:25.979Z,9.60
2017-07-08T01:01:53.813Z,10.30
2017-07-08T01:04:21.513Z,10.10
2017-07-08T01:06:49.976Z,8.53
2017-07-08T01:09:17.823Z,9.60
2017-07-08T01:11:45.509Z,10.40
2017-07-08T01:14:13.352Z,7.63
2017-07-08T01:16:41.117Z,8.10
2017-07-08T01:19:08.881Z,10.57
2017-07-08T01:21:36.747Z,11.37
2017-07-08T01:24:04.509Z,8.87
2017-07-08T01:26:32.377Z,9.30
2017-07-08T01:29:00.065Z,11.33
2017-07-08T01:31:27.802Z,9.00
2017-07-08T01:33:55.673Z,10.37
2017-07-08T01:36:23.433Z,10.70
2017-07-08T01:38:51.115Z,15.00
2017-07-08T01:41:18.861Z,13.37
2017-07-08T01:43:46.626Z,14.00
2017-07-08T01:46:14.389Z,15.80
2017-07-08T01:48:42.257Z,13.50
2017-07-08T01:51:10.020Z,11.43
2017-07-08T01:53:37.785Z,10.77
2017-07-08T01:56:05.653Z,15.07
2017-07-08T01:58:33.416Z,14.47
2017-07-08T02:01:01.113Z,13.07
2017-07-08T02:03:29.533Z,12.87
2017-07-08T02:05:57.328Z,11.20
2017-07-08T02:08:25.085Z,11.53
2017-07-08T02:10:52.853Z,12.30
2017-07-08T02:13:20.719Z,10.87
2017-07-08T02:15:48.508Z,12.10
2017-07-08T02:18:16.350Z,11.30
2017-07-08T02:20:44.114Z,15.50
2017-07-08T02:23:11.895Z,15.07
2017-07-08T02:25:39.644Z,11.90
2017-07-08T02:28:07.407Z,12.23
2017-07-08T02:30:35.275Z,14.20
2017-07-08T02:33:03.039Z,10.83
2017-07-08T02:35:30.804Z,13.50
2017-07-08T02:37:58.601Z,17.63
2017-07-08T02:40:27.150Z,20.37
2017-07-08T02:42:54.913Z,20.30
2017-07-08T02:45:22.779Z,15.70
2017-07-08T02:47:50.459Z,21.83
2017-07-08T02:50:18.233Z,22.30
2017-07-08T02:52:46.073Z,17.30
2017-07-08T02:55:13.841Z,19.30
2017-07-08T02:57:41.703Z,20.20
2017-07-08T03:00:09.339Z,18.27
2017-07-08T03:02:37.130Z,20.60
2017-07-08T03:05:04.898Z,21.47
2017-07-08T03:07:32.531Z,16.37
2017-07-08T03:10:00.189Z,14.37
2017-07-08T03:12:27.985Z,23.37
2017-07-08T03:14:55.646Z,15.67
2017-07-08T03:17:23.410Z,19.83
2017-07-08T03:19:51.277Z,20.10
2017-07-08T03:22:19.040Z,18.30
2017-07-08T03:24:46.801Z,15.33
2017-07-08T03:27:14.669Z,19.23
2017-07-08T03:29:42.434Z,24.30
2017-07-08T03:32:10.198Z,24.50
2017-07-08T03:34:37.868Z,16.97
2017-07-08T03:37:05.625Z,17.33
2017-07-08T03:39:33.389Z,19.70
2017-07-08T03:42:01.152Z,17.20
2017-07-08T03:44:28.842Z,28.03
2017-07-08T03:46:56.681Z,17.80
2017-07-08T03:49:24.445Z,26.43
2017-07-08T03:51:52.136Z,19.37
2017-07-08T03:54:19.973Z,16.70
2017-07-08T03:56:47.842Z,17.30
2017-07-08T03:59:15.607Z,19.70
2017-07-08T04:01:43.374Z,20.80
2017-07-08T04:04:11.047Z,16.70
2017-07-08T04:06:38.797Z,15.83
2017-07-08T04:09:06.455Z,15.60
2017-07-08T04:11:34.140Z,17.00
2017-07-08T04:14:01.885Z,16.83
2017-07-08T04:16:29.563Z,13.87
2017-07-08T04:18:57.417Z,14.47
2017-07-08T04:21:25.175Z,18.40
2017-07-08T04:23:52.939Z,12.00
2017-07-08T04:26:20.809Z,13.57
2017-07-08T04:28:48.493Z,12.67
2017-07-08T04:31:16.336Z,10.50
2017-07-08T04:33:44.010Z,12.50
2017-07-08T04:36:11.763Z,9.03
2017-07-08T04:38:39.455Z,10.17
2017-07-08T04:41:07.291Z,11.07
2017-07-08T04:43:35.056Z,16.57
2017-07-08T04:46:02.820Z,12.53
2017-07-08T04:48:30.581Z,11.90
2017-07-08T04:50:58.285Z,13.73
2017-07-08T04:53:26.749Z,11.00
2017-07-08T04:55:54.594Z,13.90
2017-07-08T04:58:22.356Z,14.83
2017-07-08T05:00:50.121Z,12.70
2017-07-08T05:03:17.888Z,12.60
2017-07-08T05:05:45.648Z,12.40
2017-07-08T05:08:13.414Z,14.77
2017-07-08T05:10:41.285Z,17.47
2017-07-08T05:13:08.970Z,15.87
2017-07-08T05:15:36.705Z,16.00
2017-07-08T05:18:04.375Z,9.93
2017-07-08T05:20:32.132Z,12.70
2017-07-08T05:22:59.762Z,15.80
2017-07-08T05:25:27.564Z,10.67
2017-07-08T05:27:55.249Z,18.33
2017-07-08T05:30:22.895Z,17.03
2017-07-08T05:32:50.750Z,10.77
2017-07-08T05:35:18.514Z,15.30
2017-07-08T05:37:46.146Z,14.93
2017-07-08T05:40:13.941Z,17.87
2017-07-08T05:42:41.701Z,10.40
2017-07-08T05:45:09.464Z,17.90
2017-07-08T05:47:37.256Z,15.10
2017-07-08T05:50:04.998Z,14.57
2017-07-08T05:52:32.759Z,12.17
2017-07-08T05:55:00.529Z,15.43
2017-07-08T05:57:28.288Z,20.70
2017-07-08T05:59:56.053Z,15.80
2017-07-08T06:02:23.918Z,18.33
2017-07-08T06:04:51.684Z,13.13
2017-07-08T06:07:19.448Z,14.47
2017-07-08T06:09:47.317Z,17.80
2017-07-08T06:12:14.998Z,14.63
2017-07-08T06:14:42.655Z,18.07
2017-07-08T06:17:10.504Z,22.67
2017-07-08T06:19:38.187Z,17.87
2017-07-08T06:22:05.824Z,16.67
2017-07-08T06:24:33.694Z,16.90
2017-07-08T06:27:01.374Z,19.77
2017-07-08T06:29:29.004Z,17.90
2017-07-08T06:31:56.707Z,18.83
2017-07-08T06:34:24.369Z,19.00
2017-07-08T06:36:52.110Z,20.23
2017-07-08T06:39:19.974Z,22.60
2017-07-08T06:41:47.739Z,15.97
2017-07-08T06:44:15.396Z,19.10
2017-07-08T06:46:43.164Z,20.20
2017-07-08T06:49:10.927Z,17.80
2017-07-08T06:51:38.694Z,17.20
2017-07-08T06:54:06.484Z,21.60
2017-07-08T06:56:34.221Z,23.80
2017-07-08T06:59:01.984Z,16.90
2017-07-08T07:01:29.750Z,16.13
2017-07-08T07:03:57.436Z,17.27
2017-07-08T07:06:25.067Z,15.67
2017-07-08T07:08:52.940Z,15.97
2017-07-08T07:11:20.703Z,13.67
2017-07-08T07:13:48.389Z,14.30
2017-07-08T07:16:16.156Z,15.20
2017-07-08T07:18:43.894Z,16.80
2017-07-08T07:21:11.656Z,16.17
2017-07-08T07:23:39.449Z,14.43
2017-07-08T07:26:07.188Z,13.43
2017-07-08T07:28:34.949Z,11.07
2017-07-08T07:31:02.715Z,10.93
2017-07-08T07:33:30.350Z,11.77
2017-07-08T07:35:58.069Z,12.80
2017-07-08T07:38:25.733Z,9.70
2017-07-08T07:40:53.566Z,12.97
2017-07-08T07:43:21.331Z,12.50
2017-07-08T07:45:48.998Z,10.83
2017-07-08T07:48:16.758Z,7.70
2017-07-08T07:50:44.523Z,9.60
2017-07-08T07:53:12.286Z,7.90
2017-07-08T07:55:39.943Z,10.67
2017-07-08T07:58:07.626Z,8.50
2017-07-08T08:00:35.397Z,9.87
2017-07-08T08:03:03.137Z,9.00
2017-07-08T08:05:30.771Z,8.17
2017-07-08T08:07:58.439Z,8.00
2017-07-08T08:10:26.226Z,9.03
2017-07-08T08:12:53.989Z,8.67
2017-07-08T08:15:22.062Z,6.50
2017-07-08T08:17:49.748Z,10.47
2017-07-08T08:20:17.486Z,10.53
2017-07-08T08:22:45.166Z,9.10
2017-07-08T08:25:12.913Z,8.80
2017-07-08T08:27:40.600Z,9.67
2017-07-08T08:30:08.441Z,9.30
2017-07-08T08:32:36.207Z,7.90
2017-07-08T08:35:03.969Z,6.27
2017-07-08T08:37:31.737Z,6.50
2017-07-08T08:39:59.597Z,6.17
2017-07-08T08:42:28.304Z,7.10
2017-07-08T08:44:56.166Z,8.00
2017-07-08T08:47:24.023Z,6.00
2017-07-08T08:49:51.788Z,6.20
2017-07-08T08:52:19.550Z,6.27
2017-07-08T08:54:47.313Z,6.40
2017-07-08T08:57:14.947Z,5.93
2017-07-08T08:59:42.744Z,5.13
2017-07-08T09:02:10.428Z,5.20
2017-07-08T09:04:38.163Z,4.97
2017-07-08T09:07:05.930Z,4.90
2017-07-08T09:09:33.606Z,5.10
2017-07-08T09:12:01.374Z,4.63
2017-07-08T09:14:29.014Z,5.23
2017-07-08T09:16:56.781Z,5.70
2017-07-08T09:19:24.547Z,5.57
2017-07-08T09:21:52.309Z,4.90
2017-07-08T09:24:19.995Z,4.57
2017-07-08T09:26:47.741Z,5.03
2017-07-08T09:29:16.046Z,5.60
2017-07-08T09:31:44.723Z,4.73
2017-07-08T09:34:12.583Z,5.40
2017-07-08T09:36:40.551Z,5.27
2017-07-08T09:39:08.421Z,5.27
2017-07-08T09:41:36.255Z,5.07
2017-07-08T09:44:04.150Z,5.20
2017-07-08T09:46:32.118Z,4.60
2017-07-08T09:48:59.982Z,5.97
2017-07-08T09:51:27.851Z,5.03
2017-07-08T09:53:55.724Z,3.83
2017-07-08T09:56:23.694Z,4.27
2017-07-08T09:58:51.559Z,3.70
2017-07-08T10:01:19.520Z,4.43
2017-07-08T10:03:47.391Z,3.70
2017-07-08T10:06:15.360Z,3.57
2017-07-08T10:08:43.230Z,4.20
2017-07-08T10:11:11.100Z,3.70
2017-07-08T10:13:39.062Z,4.17
2017-07-08T10:16:06.811Z,3.20
2017-07-08T10:18:34.702Z,4.00
2017-07-08T10:21:02.467Z,3.60
2017-07-08T10:23:30.307Z,3.90
2017-07-08T10:25:58.074Z,3.43
2017-07-08T10:28:25.756Z,3.50
2017-07-08T10:30:53.531Z,4.00
2017-07-08T10:33:21.953Z,3.60
2017-07-08T10:35:49.743Z,3.57
2017-07-08T10:38:17.428Z,4.00
2017-07-08T10:40:45.270Z,3.53
2017-07-08T10:43:13.038Z,3.33
2017-07-08T10:45:40.700Z,3.00
2017-07-08T10:48:08.379Z,3.50
2017-07-08T10:50:36.224Z,3.00
2017-07-08T10:53:03.990Z,3.40
2017-07-08T10:55:31.757Z,3.00
2017-07-08T10:57:59.391Z,3.33
2017-07-08T11:00:27.023Z,2.80
2017-07-08T11:02:54.843Z,2.93
2017-07-08T11:05:22.609Z,2.83
2017-07-08T11:07:50.244Z,2.47
2017-07-08T11:10:18.033Z,3.53
2017-07-08T11:12:45.860Z,3.40
2017-07-08T11:15:13.665Z,2.70
2017-07-08T11:17:41.434Z,2.80
2017-07-08T11:20:09.192Z,3.07
2017-07-08T11:22:36.956Z,2.83
2017-07-08T11:25:04.722Z,3.27
2017-07-08T11:27:32.400Z,3.90
2017-07-08T11:30:00.069Z,3.30
2017-07-08T11:32:27.728Z,2.83
2017-07-08T11:34:55.368Z,3.67
2017-07-08T11:37:23.132Z,3.87
2017-07-08T11:39:50.897Z,3.20
2017-07-08T11:42:18.664Z,3.50
2017-07-08T11:44:46.425Z,3.57
2017-07-08T11:47:14.191Z,4.10
2017-07-08T11:49:41.955Z,3.73
2017-07-08T11:52:09.623Z,3.20
2017-07-08T11:54:37.382Z,3.90
2017-07-08T11:57:05.059Z,3.80
2017-07-08T11:59:32.723Z,3.37
2017-07-08T12:02:00.470Z,4.13
2017-07-08T12:04:28.234Z,4.10
2017-07-08T12:06:55.998Z,4.50
2017-07-08T12:09:23.764Z,5.37
2017-07-08T12:11:51.449Z,5.33
2017-07-08T12:14:19.188Z,6.67
2017-07-08T12:16:47.058Z,4.47
2017-07-08T12:19:14.819Z,6.23
2017-07-08T12:21:42.583Z,5.30
2017-07-08T12:24:10.348Z,4.40
2017-07-08T12:26:38.114Z,4.73
2017-07-08T12:29:05.877Z,6.33
2017-07-08T12:31:33.647Z,5.07
2017-07-08T12:34:01.507Z,4.93
2017-07-08T12:36:29.149Z,6.53
2017-07-08T12:38:56.852Z,4.93
2017-07-08T12:41:24.698Z,4.80
2017-07-08T12:43:52.380Z,5.73
2017-07-08T12:46:20.229Z,6.10
2017-07-08T12:48:47.993Z,5.93
2017-07-08T12:51:15.755Z,5.80
2017-07-08T12:53:43.435Z,4.43
2017-07-08T12:56:11.205Z,4.77
2017-07-08T12:58:39.050Z,4.00
2017-07-08T13:01:06.819Z,5.17
2017-07-08T13:03:34.679Z,4.20
2017-07-08T13:06:02.444Z,4.27
2017-07-08T13:08:30.130Z,4.40
2017-07-08T13:10:57.914Z,4.30
2017-07-08T13:13:26.455Z,3.63
2017-07-08T13:15:54.216Z,3.50
2017-07-08T13:18:21.982Z,3.03
2017-07-08T13:20:49.745Z,3.60
2017-07-08T13:23:17.423Z,4.40
2017-07-08T13:25:45.170Z,3.60
2017-07-08T13:28:12.941Z,3.40
2017-07-08T13:30:40.615Z,3.97
2017-07-08T13:33:09.283Z,4.30
2017-07-08T13:35:36.968Z,4.63
2017-07-08T13:38:04.903Z,5.00
2017-07-08T13:40:32.798Z,3.60
2017-07-08T13:43:00.554Z,4.47
2017-07-08T13:45:28.312Z,3.77
2017-07-08T13:47:56.094Z,4.00
2017-07-08T13:50:23.961Z,4.17
2017-07-08T13:52:51.829Z,4.13
2017-07-08T13:55:19.617Z,2.83
2017-07-08T13:57:47.552Z,3.40
2017-07-08T14:00:15.265Z,3.70
2017-07-08T14:02:43.069Z,3.90
2017-07-08T14:05:10.871Z,3.63
2017-07-08T14:07:39.519Z,3.07
2017-07-08T14:10:07.400Z,4.00
2017-07-08T14:12:35.272Z,3.67
2017-07-08T14:15:03.135Z,3.90
2017-07-08T14:17:31.003Z,4.50
2017-07-08T14:19:58.755Z,3.07
2017-07-08T14:22:26.514Z,3.30
2017-07-08T14:24:54.287Z,3.73
2017-07-08T14:27:22.158Z,3.90
2017-07-08T14:29:50.021Z,4.43
2017-07-08T14:32:17.893Z,3.77
2017-07-08T14:34:45.766Z,3.40
2017-07-08T14:37:13.530Z,4.50
2017-07-08T14:39:41.394Z,4.50
2017-07-08T14:42:09.267Z,4.20
2017-07-08T14:44:37.109Z,4.70
2017-07-08T14:47:04.980Z,4.43
2017-07-08T14:49:32.844Z,3.77
2017-07-08T14:52:00.605Z,4.33
2017-07-08T14:54:28.369Z,3.57
2017-07-08T14:56:56.439Z,4.43
2017-07-08T14:59:24.217Z,3.97
2017-07-08T15:01:52.095Z,3.80
2017-07-08T15:04:19.949Z,4.40
2017-07-08T15:06:47.722Z,5.93
2017-07-08T15:09:15.584Z,4.03
2017-07-08T15:11:43.367Z,3.43
2017-07-08T15:14:11.814Z,3.83
2017-07-08T15:16:39.681Z,3.57
2017-07-08T15:19:07.567Z,3.50
2017-07-08T15:21:35.369Z,4.03
2017-07-08T15:24:03.190Z,3.73
2017-07-08T15:26:31.065Z,3.60
2017-07-08T15:28:58.790Z,3.70
2017-07-08T15:31:26.527Z,3.90
2017-07-08T15:33:54.358Z,3.13
2017-07-08T15:36:22.103Z,3.70
2017-07-08T15:38:49.984Z,3.50
2017-07-08T15:41:17.770Z,3.47
2017-07-08T15:43:46.315Z,3.23
2017-07-08T15:46:14.087Z,3.30
2017-07-08T15:48:41.947Z,3.20
2017-07-08T15:51:09.644Z,3.40
2017-07-08T15:53:38.111Z,3.47
2017-07-08T15:56:05.915Z,3.30
2017-07-08T15:58:33.720Z,2.60
2017-07-08T16:01:01.485Z,2.60
2017-07-08T16:03:29.253Z,3.20
2017-07-08T16:05:57.137Z,3.40
2017-07-08T16:08:25.002Z,3.20
2017-07-08T16:10:52.867Z,2.87
2017-07-08T16:13:20.735Z,3.10
2017-07-08T16:15:48.533Z,3.87
2017-07-08T16:18:16.301Z,3.00
2017-07-08T16:20:44.021Z,3.47
2017-07-08T16:23:11.786Z,3.00
2017-07-08T16:25:39.660Z,2.73
2017-07-08T16:28:09.347Z,3.47
2017-07-08T16:30:37.234Z,2.47
2017-07-08T16:33:05.117Z,2.70
2017-07-08T16:35:33.673Z,3.00
2017-07-08T16:38:01.480Z,2.43
2017-07-08T16:40:29.174Z,2.90
2017-07-08T16:42:57.078Z,2.87
2017-07-08T16:45:24.943Z,3.40
2017-07-08T16:47:52.814Z,2.67
2017-07-08T16:50:20.563Z,3.00
2017-07-08T16:52:48.429Z,2.53
2017-07-08T16:55:16.294Z,3.33
2017-07-08T16:57:44.018Z,2.10
2017-07-08T17:00:11.823Z,3.03
2017-07-08T17:02:39.691Z,2.80
2017-07-08T17:05:07.467Z,2.50
2017-07-08T17:07:35.175Z,2.80
2017-07-08T17:10:03.097Z,2.50
2017-07-08T17:12:30.845Z,2.40
2017-07-08T17:14:58.611Z,2.70
2017-07-08T17:17:26.376Z,2.30
2017-07-08T17:19:54.157Z,2.37
2017-07-08T17:22:22.028Z,3.43
2017-07-08T17:24:49.789Z,2.87
2017-07-08T17:27:17.499Z,2.53
2017-07-08T17:29:45.410Z,2.70
2017-07-08T17:32:13.271Z,2.13
2017-07-08T17:34:41.135Z,2.83
2017-07-08T17:37:08.898Z,2.30
2017-07-08T17:39:36.620Z,2.30
2017-07-08T17:42:04.447Z,2.20
2017-07-08T17:44:33.008Z,2.33
2017-07-08T17:47:00.775Z,2.33
2017-07-08T17:49:28.673Z,2.37
2017-07-08T17:51:57.225Z,2.50
2017-07-08T17:54:25.094Z,2.30
2017-07-08T17:56:53.069Z,2.20
2017-07-08T17:59:21.543Z,2.60
2017-07-08T18:01:49.875Z,2.80
2017-07-08T18:04:18.435Z,2.40
2017-07-08T18:06:47.495Z,3.17
2017-07-08T18:09:15.946Z,2.20
2017-07-08T18:11:44.772Z,2.37
2017-07-08T18:14:12.635Z,2.80
2017-07-08T18:16:42.082Z,2.50
2017-07-08T18:19:10.683Z,2.77
2017-07-08T18:21:38.587Z,3.57
2017-07-08T18:24:07.279Z,2.70
2017-07-08T18:26:36.642Z,3.10
2017-07-08T18:29:05.170Z,3.43
2017-07-08T18:31:33.961Z,3.20
2017-07-08T18:34:02.981Z,3.33
2017-07-08T18:36:31.529Z,3.27
2017-07-08T18:38:59.235Z,3.27
2017-07-08T18:41:27.883Z,3.20
2017-07-08T18:43:55.737Z,2.87
2017-07-08T18:46:23.605Z,3.07
2017-07-08T18:48:51.472Z,3.10
2017-07-08T18:51:19.365Z,3.10
2017-07-08T18:53:48.021Z,3.20
2017-07-08T18:56:15.799Z,3.70
2017-07-08T18:58:43.595Z,3.10
2017-07-08T19:01:12.148Z,2.60
2017-07-08T19:03:40.019Z,2.90
2017-07-08T19:06:07.886Z,2.90
2017-07-08T19:08:35.755Z,3.13
2017-07-08T19:11:03.600Z,3.17
2017-07-08T19:13:31.482Z,3.83
2017-07-08T19:15:59.297Z,3.27
2017-07-08T19:18:27.097Z,3.70
2017-07-08T19:20:54.862Z,3.60
2017-07-08T19:23:22.735Z,3.13
2017-07-08T19:25:50.513Z,3.07
2017-07-08T19:28:18.381Z,3.27
2017-07-08T19:30:46.125Z,3.47
2017-07-08T19:33:13.809Z,3.27
2017-07-08T19:35:41.652Z,3.60
2017-07-08T19:38:09.522Z,3.80
2017-07-08T19:40:37.283Z,3.23
2017-07-08T19:43:05.077Z,3.17
2017-07-08T19:45:32.990Z,3.20
2017-07-08T19:48:00.802Z,3.63
2017-07-08T19:50:28.551Z,2.50
2017-07-08T19:52:56.413Z,3.40
2017-07-08T19:55:24.178Z,2.70
2017-07-08T19:57:52.043Z,2.90
2017-07-08T20:00:19.701Z,4.10
2017-07-08T20:02:47.586Z,3.60
2017-07-08T20:05:15.565Z,3.70
2017-07-08T20:07:43.430Z,3.70
2017-07-08T20:10:11.277Z,3.83
2017-07-08T20:12:39.150Z,3.77
2017-07-08T20:15:07.018Z,3.00
2017-07-08T20:17:34.717Z,3.27
2017-07-08T20:20:03.357Z,2.93
2017-07-08T20:22:31.123Z,3.43
2017-07-08T20:24:58.887Z,2.93
2017-07-08T20:27:26.751Z,4.03
2017-07-08T20:29:55.007Z,3.30
2017-07-08T20:32:22.791Z,4.10
2017-07-08T20:34:50.662Z,3.30
2017-07-08T20:37:18.528Z,2.93
2017-07-08T20:39:46.395Z,3.10
2017-07-08T20:42:14.279Z,3.90
2017-07-08T20:44:42.067Z,3.33
2017-07-08T20:47:10.709Z,3.00
2017-07-08T20:49:38.530Z,4.03
2017-07-08T20:52:06.338Z,2.63
2017-07-08T20:54:34.025Z,2.77
2017-07-08T20:57:01.968Z,2.77
2017-07-08T20:59:29.837Z,2.80
2017-07-08T21:01:57.552Z,3.77
2017-07-08T21:04:25.366Z,3.30
2017-07-08T21:06:53.248Z,3.33
2017-07-08T21:09:21.212Z,4.07
2017-07-08T21:11:49.077Z,2.80
2017-07-08T21:14:16.834Z,3.67
2017-07-08T21:16:44.541Z,2.77
2017-07-08T21:19:12.359Z,2.50
2017-07-08T21:21:40.123Z,2.60
2017-07-08T21:24:07.907Z,3.13
2017-07-08T21:26:35.767Z,3.63
2017-07-08T21:29:03.620Z,3.23
2017-07-08T21:31:31.386Z,2.03
2017-07-08T21:33:59.155Z,3.30
2017-07-08T21:36:26.917Z,3.43
2017-07-08T21:38:54.675Z,3.40
2017-07-08T21:41:22.542Z,3.20
2017-07-08T21:43:50.324Z,3.30
2017-07-08T21:46:18.173Z,2.50
2017-07-08T21:48:47.222Z,3.03
2017-07-08T21:51:15.446Z,2.40
2017-07-08T21:53:43.312Z,3.00
2017-07-08T21:56:11.198Z,3.03
2017-07-08T21:58:39.060Z,3.20
2017-07-08T22:01:06.812Z,2.60
2017-07-08T22:03:34.684Z,3.00
2017-07-08T22:06:03.262Z,3.10
2017-07-08T22:08:31.031Z,2.77
2017-07-08T22:10:58.815Z,3.00
2017-07-08T22:13:27.287Z,2.73
2017-07-08T22:15:55.155Z,2.80
2017-07-08T22:18:22.900Z,3.10
2017-07-08T22:20:50.668Z,2.83
2017-07-08T22:23:18.530Z,2.93
2017-07-08T22:25:46.396Z,3.23
2017-07-08T22:28:14.184Z,2.70
2017-07-08T22:30:42.045Z,3.50
2017-07-08T22:33:09.895Z,2.73
2017-07-08T22:35:37.659Z,2.47
2017-07-08T22:38:05.477Z,2.40
2017-07-08T22:40:33.223Z,2.73
2017-07-08T22:43:01.877Z,2.80
2017-07-08T22:45:29.758Z,3.07
2017-07-08T22:47:57.561Z,2.60
2017-07-08T22:50:25.369Z,3.40
2017-07-08T22:52:53.244Z,2.87
2017-07-08T22:55:21.003Z,2.40
2017-07-08T22:57:48.769Z,2.37
2017-07-08T23:00:16.581Z,2.20
2017-07-08T23:02:45.131Z,2.43
2017-07-08T23:05:12.985Z,3.03
2017-07-08T23:07:40.854Z,3.00
2017-07-08T23:10:08.714Z,2.90
2017-07-08T23:12:36.494Z,3.10
2017-07-08T23:15:04.347Z,2.37
2017-07-08T23:17:32.110Z,2.20
2017-07-08T23:19:59.874Z,2.53
2017-07-08T23:22:27.654Z,2.37
2017-07-08T23:24:55.411Z,2.57
2017-07-08T23:27:23.267Z,3.00
2017-07-08T23:29:51.136Z,2.87
2017-07-08T23:32:18.906Z,2.83
2017-07-08T23:34:46.664Z,2.77
2017-07-08T23:37:14.530Z,2.90
2017-07-08T23:39:42.397Z,2.80
2017-07-08T23:42:10.265Z,2.70
2017-07-08T23:44:38.138Z,4.03
2017-07-08T23:47:05.920Z,3.40
2017-07-08T23:49:33.693Z,3.00
2017-07-08T23:52:02.245Z,3.40
2017-07-08T23:54:30.015Z,2.53
2017-07-08T23:56:57.783Z,2.70
2017-07-08T23:59:26.356Z,3.57
